sensor_id;sensor_type;location;lat;lon;timestamp;temperature;humidity
4693;DHT22;11710;48.024;16.296;2022-11-15T07:02:17;7.60;99.90
4693;DHT22;11710;48.024;16.296;2022-11-15T07:04:44;7.60;99.90
4693;DHT22;11710;48.024;16.296;2022-11-15T07:07:11;7.70;99.90
4693;DHT22;11710;48.024;16.296;2022-11-15T07:09:39;7.70;99.90
4693;DHT22;11710;48.024;16.296;2022-11-15T07:12:06;7.70;99.90
4693;DHT22;11710;48.024;16.296;2022-11-15T07:14:33;7.60;99.90
4693;DHT22;11710;48.024;16.296;2022-11-15T07:17:03;7.70;99.90
4693;DHT22;11710;48.024;16.296;2022-11-15T07:19:31;7.70;99.90
4693;DHT22;11710;48.024;16.296;2022-11-15T07:21:59;7.80;99.90
4693;DHT22;11710;48.024;16.296;2022-11-15T07:24:26;7.90;99.90
4693;DHT22;11710;48.024;16.296;2022-11-15T07:26:53;7.90;99.90
4693;DHT22;11710;48.024;16.296;2022-11-15T07:29:20;8.00;99.90
4693;DHT22;11710;48.024;16.296;2022-11-15T07:31:47;8.00;99.90
4693;DHT22;11710;48.024;16.296;2022-11-15T07:34:14;8.10;99.90
4693;DHT22;11710;48.024;16.296;2022-11-15T07:36:43;8.10;99.90
4693;DHT22;11710;48.024;16.296;2022-11-15T07:39:10;8.20;99.90
4693;DHT22;11710;48.024;16.296;2022-11-15T07:41:39;8.20;99.90
4693;DHT22;11710;48.024;16.296;2022-11-15T07:44:06;8.20;99.90
4693;DHT22;11710;48.024;16.296;2022-11-15T07:46:34;8.20;99.90
4693;DHT22;11710;48.024;16.296;2022-11-15T07:49:02;8.10;99.90
4693;DHT22;11710;48.024;16.296;2022-11-15T07:51:29;8.00;99.90
4693;DHT22;11710;48.024;16.296;2022-11-15T07:54:00;7.90;99.90
4693;DHT22;11710;48.024;16.296;2022-11-15T07:56:28;7.90;99.90
4693;DHT22;11710;48.024;16.296;2022-11-15T07:58:56;7.90;99.90
4693;DHT22;11710;48.024;16.296;2022-11-15T08:01:23;7.90;99.90
4693;DHT22;11710;48.024;16.296;2022-11-15T08:03:50;7.90;99.90
4693;DHT22;11710;48.024;16.296;2022-11-15T08:06:18;7.90;99.90
4693;DHT22;11710;48.024;16.296;2022-11-15T08:08:47;7.90;99.90
4693;DHT22;11710;48.024;16.296;2022-11-15T08:11:15;7.90;99.90
4693;DHT22;11710;48.024;16.296;2022-11-15T08:13:43;7.70;99.90
4693;DHT22;11710;48.024;16.296;2022-11-15T08:16:10;7.70;99.90
4693;DHT22;11710;48.024;16.296;2022-11-15T08:18:38;7.70;99.90
4693;DHT22;11710;48.024;16.296;2022-11-15T08:21:05;7.70;99.90
4693;DHT22;11710;48.024;16.296;2022-11-15T08:23:32;7.60;99.90
4693;DHT22;11710;48.024;16.296;2022-11-15T08:26:01;7.60;99.90
4693;DHT22;11710;48.024;16.296;2022-11-15T08:28:30;7.60;99.90
4693;DHT22;11710;48.024;16.296;2022-11-15T08:30:58;7.70;99.90
4693;DHT22;11710;48.024;16.296;2022-11-15T08:33:25;7.70;99.90
4693;DHT22;11710;48.024;16.296;2022-11-15T08:35:52;7.70;99.90
4693;DHT22;11710;48.024;16.296;2022-11-15T08:38:19;7.70;99.90
4693;DHT22;11710;48.024;16.296;2022-11-15T08:40:46;7.70;99.90
4693;DHT22;11710;48.024;16.296;2022-11-15T08:43:14;7.70;99.90
4693;DHT22;11710;48.024;16.296;2022-11-15T08:45:43;7.70;99.90
4693;DHT22;11710;48.024;16.296;2022-11-15T08:48:11;7.80;99.90
4693;DHT22;11710;48.024;16.296;2022-11-15T08:50:38;7.80;99.90
4693;DHT22;11710;48.024;16.296;2022-11-15T08:53:06;7.80;99.90
4693;DHT22;11710;48.024;16.296;2022-11-15T08:55:36;7.80;99.90
4693;DHT22;11710;48.024;16.296;2022-11-15T08:58:04;7.80;99.90
4693;DHT22;11710;48.024;16.296;2022-11-15T09:00:32;7.80;99.90
4693;DHT22;11710;48.024;16.296;2022-11-15T09:03:03;7.80;99.90
4693;DHT22;11710;48.024;16.296;2022-11-15T09:05:30;7.80;99.90
4693;DHT22;11710;48.024;16.296;2022-11-15T09:07:58;7.80;99.90
4693;DHT22;11710;48.024;16.296;2022-11-15T09:10:25;7.90;99.90
4693;DHT22;11710;48.024;16.296;2022-11-15T09:12:52;7.90;99.90
4693;DHT22;11710;48.024;16.296;2022-11-15T09:15:20;7.90;99.90
4693;DHT22;11710;48.024;16.296;2022-11-15T09:17:47;7.90;99.90
4693;DHT22;11710;48.024;16.296;2022-11-15T09:20:16;7.90;99.90
4693;DHT22;11710;48.024;16.296;2022-11-15T09:22:43;7.90;99.90
4693;DHT22;11710;48.024;16.296;2022-11-15T09:25:10;7.90;99.90
4693;DHT22;11710;48.024;16.296;2022-11-15T09:27:37;8.00;99.90
4693;DHT22;11710;48.024;16.296;2022-11-15T09:30:05;8.00;99.90
4693;DHT22;11710;48.024;16.296;2022-11-15T09:32:33;8.20;99.90
4693;DHT22;11710;48.024;16.296;2022-11-15T09:35:01;8.20;99.90
4693;DHT22;11710;48.024;16.296;2022-11-15T09:37:31;8.30;99.90
4693;DHT22;11710;48.024;16.296;2022-11-15T09:40:06;8.50;99.90
4693;DHT22;11710;48.024;16.296;2022-11-15T09:43:02;8.60;99.90
4693;DHT22;11710;48.024;16.296;2022-11-15T09:45:38;8.60;99.90
4693;DHT22;11710;48.024;16.296;2022-11-15T09:51:14;8.70;99.90
4693;DHT22;11710;48.024;16.296;2022-11-15T09:53:50;8.80;99.90
4693;DHT22;11710;48.024;16.296;2022-11-15T09:56:21;8.80;99.90
4693;DHT22;11710;48.024;16.296;2022-11-15T09:58:56;8.90;99.90
4693;DHT22;11710;48.024;16.296;2022-11-15T10:01:35;9.00;99.90
4693;DHT22;11710;48.024;16.296;2022-11-15T10:04:03;9.20;99.90
4693;DHT22;11710;48.024;16.296;2022-11-15T10:06:31;9.30;99.90
4693;DHT22;11710;48.024;16.296;2022-11-15T10:09:07;9.40;99.90
4693;DHT22;11710;48.024;16.296;2022-11-15T10:11:40;9.40;99.90
4693;DHT22;11710;48.024;16.296;2022-11-15T10:14:12;9.40;99.90
4693;DHT22;11710;48.024;16.296;2022-11-15T10:19:45;9.40;99.90
4693;DHT22;11710;48.024;16.296;2022-11-15T10:22:25;9.40;99.90
4693;DHT22;11710;48.024;16.296;2022-11-15T10:25:18;9.30;99.90
4693;DHT22;11710;48.024;16.296;2022-11-15T10:27:52;9.30;99.90
4693;DHT22;11710;48.024;16.296;2022-11-15T10:30:20;9.30;99.90
4693;DHT22;11710;48.024;16.296;2022-11-15T10:32:48;9.30;99.90
4693;DHT22;11710;48.024;16.296;2022-11-15T10:35:22;9.40;99.90
4693;DHT22;11710;48.024;16.296;2022-11-15T10:37:50;9.50;99.90
4693;DHT22;11710;48.024;16.296;2022-11-15T10:40:21;9.50;99.90
4693;DHT22;11710;48.024;16.296;2022-11-15T10:43:02;9.60;99.90
4693;DHT22;11710;48.024;16.296;2022-11-15T10:45:33;9.60;99.90
4693;DHT22;11710;48.024;16.296;2022-11-15T10:48:20;9.60;99.90
4693;DHT22;11710;48.024;16.296;2022-11-15T10:50:50;9.50;99.90
4693;DHT22;11710;48.024;16.296;2022-11-15T10:53:23;9.40;99.90
4693;DHT22;11710;48.024;16.296;2022-11-15T10:55:54;9.50;99.90
4693;DHT22;11710;48.024;16.296;2022-11-15T10:58:34;9.50;99.90
4693;DHT22;11710;48.024;16.296;2022-11-15T11:01:10;9.50;99.90
4693;DHT22;11710;48.024;16.296;2022-11-15T11:03:39;9.60;99.90
4693;DHT22;11710;48.024;16.296;2022-11-15T11:06:10;9.60;99.90
4693;DHT22;11710;48.024;16.296;2022-11-15T11:08:39;9.60;99.90
4693;DHT22;11710;48.024;16.296;2022-11-15T11:11:08;9.60;99.90
4693;DHT22;11710;48.024;16.296;2022-11-15T11:13:37;9.60;99.90
4693;DHT22;11710;48.024;16.296;2022-11-15T11:16:38;9.60;99.90
4693;DHT22;11710;48.024;16.296;2022-11-15T11:19:23;9.60;99.90
4693;DHT22;11710;48.024;16.296;2022-11-15T11:21:58;9.50;99.90
4693;DHT22;11710;48.024;16.296;2022-11-15T11:24:35;9.50;99.90
4693;DHT22;11710;48.024;16.296;2022-11-15T11:27:18;9.50;99.90
4693;DHT22;11710;48.024;16.296;2022-11-15T11:30:03;9.50;99.90
4693;DHT22;11710;48.024;16.296;2022-11-15T11:32:50;9.50;99.90
4693;DHT22;11710;48.024;16.296;2022-11-15T11:35:27;9.60;99.90
4693;DHT22;11710;48.024;16.296;2022-11-15T11:38:07;9.50;99.90
4693;DHT22;11710;48.024;16.296;2022-11-15T11:40:41;9.50;99.90
4693;DHT22;11710;48.024;16.296;2022-11-15T11:43:20;9.60;99.90
4693;DHT22;11710;48.024;16.296;2022-11-15T11:46:09;9.70;99.90
4693;DHT22;11710;48.024;16.296;2022-11-15T11:48:42;9.80;99.90
4693;DHT22;11710;48.024;16.296;2022-11-15T11:51:18;9.80;99.90
4693;DHT22;11710;48.024;16.296;2022-11-15T11:53:50;9.90;99.90
4693;DHT22;11710;48.024;16.296;2022-11-15T11:56:26;9.90;99.90
4693;DHT22;11710;48.024;16.296;2022-11-15T11:59:00;10.00;99.90
4693;DHT22;11710;48.024;16.296;2022-11-15T12:01:34;10.00;99.90
4693;DHT22;11710;48.024;16.296;2022-11-15T12:04:09;10.00;99.90
4693;DHT22;11710;48.024;16.296;2022-11-15T12:06:47;10.00;99.90
4693;DHT22;11710;48.024;16.296;2022-11-15T12:09:19;10.00;99.90
4693;DHT22;11710;48.024;16.296;2022-11-15T12:11:52;10.00;99.90
4693;DHT22;11710;48.024;16.296;2022-11-15T12:14:29;10.00;99.90
4693;DHT22;11710;48.024;16.296;2022-11-15T12:16:59;10.00;99.90
4693;DHT22;11710;48.024;16.296;2022-11-15T12:19:27;10.00;99.90
4693;DHT22;11710;48.024;16.296;2022-11-15T12:22:02;10.00;99.90
4693;DHT22;11710;48.024;16.296;2022-11-15T12:24:34;10.00;99.90
4693;DHT22;11710;48.024;16.296;2022-11-15T12:27:06;9.90;99.90
4693;DHT22;11710;48.024;16.296;2022-11-15T12:29:41;9.90;99.90
4693;DHT22;11710;48.024;16.296;2022-11-15T12:32:20;9.80;99.90
4693;DHT22;11710;48.024;16.296;2022-11-15T12:34:52;9.80;99.90
4693;DHT22;11710;48.024;16.296;2022-11-15T12:37:53;9.70;99.90
4693;DHT22;11710;48.024;16.296;2022-11-15T12:40:36;9.60;99.90
4693;DHT22;11710;48.024;16.296;2022-11-15T12:43:37;9.60;99.90
4693;DHT22;11710;48.024;16.296;2022-11-15T12:46:12;9.60;99.90
4693;DHT22;11710;48.024;16.296;2022-11-15T12:48:58;9.40;99.90
4693;DHT22;11710;48.024;16.296;2022-11-15T12:54:52;9.40;99.90
4693;DHT22;11710;48.024;16.296;2022-11-15T12:57:44;9.30;99.90
4693;DHT22;11710;48.024;16.296;2022-11-15T13:00:37;9.20;99.90
4693;DHT22;11710;48.024;16.296;2022-11-15T13:03:28;9.20;99.90
4693;DHT22;11710;48.024;16.296;2022-11-15T13:06:00;9.10;99.90
4693;DHT22;11710;48.024;16.296;2022-11-15T13:08:43;9.10;99.90
4693;DHT22;11710;48.024;16.296;2022-11-15T13:14:45;9.10;99.90
4693;DHT22;11710;48.024;16.296;2022-11-15T13:17:34;9.00;99.90
4693;DHT22;11710;48.024;16.296;2022-11-15T13:20:36;8.90;99.90
4693;DHT22;11710;48.024;16.296;2022-11-15T13:23:10;8.90;99.90
4693;DHT22;11710;48.024;16.296;2022-11-15T13:25:51;8.90;99.90
4693;DHT22;11710;48.024;16.296;2022-11-15T13:28:26;8.80;99.90
4693;DHT22;11710;48.024;16.296;2022-11-15T13:30:55;8.90;99.90
4693;DHT22;11710;48.024;16.296;2022-11-15T13:33:25;8.90;99.90
4693;DHT22;11710;48.024;16.296;2022-11-15T13:35:58;8.90;99.90
4693;DHT22;11710;48.024;16.296;2022-11-15T13:38:28;8.80;99.90
4693;DHT22;11710;48.024;16.296;2022-11-15T13:40:56;8.90;99.90
4693;DHT22;11710;48.024;16.296;2022-11-15T13:43:34;8.90;99.90
4693;DHT22;11710;48.024;16.296;2022-11-15T13:46:12;8.90;99.90
4693;DHT22;11710;48.024;16.296;2022-11-15T13:48:41;8.90;99.90
4693;DHT22;11710;48.024;16.296;2022-11-15T13:51:17;8.90;99.90
4693;DHT22;11710;48.024;16.296;2022-11-15T13:53:57;8.90;99.90
4693;DHT22;11710;48.024;16.296;2022-11-15T13:56:29;8.90;99.90
4693;DHT22;11710;48.024;16.296;2022-11-15T13:59:00;8.90;99.90
4693;DHT22;11710;48.024;16.296;2022-11-15T14:01:30;9.00;99.90
4693;DHT22;11710;48.024;16.296;2022-11-15T14:03:59;9.00;99.90
4693;DHT22;11710;48.024;16.296;2022-11-15T14:06:30;9.00;99.90
4693;DHT22;11710;48.024;16.296;2022-11-15T14:09:04;9.00;99.90
4693;DHT22;11710;48.024;16.296;2022-11-15T14:11:54;9.00;99.90
4693;DHT22;11710;48.024;16.296;2022-11-15T14:14:28;9.10;99.90
4693;DHT22;11710;48.024;16.296;2022-11-15T14:16:57;9.10;99.90
4693;DHT22;11710;48.024;16.296;2022-11-15T14:19:36;9.10;99.90
4693;DHT22;11710;48.024;16.296;2022-11-15T14:22:18;9.10;99.90
4693;DHT22;11710;48.024;16.296;2022-11-15T14:25:13;9.10;99.90
4693;DHT22;11710;48.024;16.296;2022-11-15T14:27:41;9.10;99.90
4693;DHT22;11710;48.024;16.296;2022-11-15T14:30:14;9.20;99.90
4693;DHT22;11710;48.024;16.296;2022-11-15T14:32:45;9.20;99.90
4693;DHT22;11710;48.024;16.296;2022-11-15T14:35:15;9.30;99.90
4693;DHT22;11710;48.024;16.296;2022-11-15T14:37:44;9.20;99.90
4693;DHT22;11710;48.024;16.296;2022-11-15T14:40:14;9.30;99.90
4693;DHT22;11710;48.024;16.296;2022-11-15T14:42:44;9.40;99.90
4693;DHT22;11710;48.024;16.296;2022-11-15T14:45:16;9.40;99.90
4693;DHT22;11710;48.024;16.296;2022-11-15T14:47:44;9.40;99.90
4693;DHT22;11710;48.024;16.296;2022-11-15T14:50:12;9.40;99.90
4693;DHT22;11710;48.024;16.296;2022-11-15T14:52:40;9.40;99.90
4693;DHT22;11710;48.024;16.296;2022-11-15T14:55:16;9.40;99.90
4693;DHT22;11710;48.024;16.296;2022-11-15T14:57:45;9.40;99.90
4693;DHT22;11710;48.024;16.296;2022-11-15T15:00:13;9.40;99.90
4693;DHT22;11710;48.024;16.296;2022-11-15T15:02:42;9.50;99.90
4693;DHT22;11710;48.024;16.296;2022-11-15T15:05:15;9.50;99.90
4693;DHT22;11710;48.024;16.296;2022-11-15T15:07:43;9.50;99.90
4693;DHT22;11710;48.024;16.296;2022-11-15T15:10:13;9.50;99.90
4693;DHT22;11710;48.024;16.296;2022-11-15T15:12:40;9.50;99.90
4693;DHT22;11710;48.024;16.296;2022-11-15T15:15:13;9.50;99.90
4693;DHT22;11710;48.024;16.296;2022-11-15T15:17:41;9.50;99.90
4693;DHT22;11710;48.024;16.296;2022-11-15T15:20:09;9.50;99.90
4693;DHT22;11710;48.024;16.296;2022-11-15T15:22:37;9.50;99.90
4693;DHT22;11710;48.024;16.296;2022-11-15T15:25:21;9.50;99.90
4693;DHT22;11710;48.024;16.296;2022-11-15T15:27:49;9.50;99.90
4693;DHT22;11710;48.024;16.296;2022-11-15T15:30:17;9.50;99.90
4693;DHT22;11710;48.024;16.296;2022-11-15T15:32:45;9.40;99.90
4693;DHT22;11710;48.024;16.296;2022-11-15T15:35:13;9.40;99.90
4693;DHT22;11710;48.024;16.296;2022-11-15T15:37:41;9.40;99.90
4693;DHT22;11710;48.024;16.296;2022-11-15T15:40:13;9.40;99.90
4693;DHT22;11710;48.024;16.296;2022-11-15T15:42:43;9.50;99.90
4693;DHT22;11710;48.024;16.296;2022-11-15T15:45:10;9.50;99.90
4693;DHT22;11710;48.024;16.296;2022-11-15T15:47:39;9.50;99.90
4693;DHT22;11710;48.024;16.296;2022-11-15T15:50:17;9.60;99.90
4693;DHT22;11710;48.024;16.296;2022-11-15T15:52:47;9.60;99.90
4693;DHT22;11710;48.024;16.296;2022-11-15T15:55:15;9.60;99.90
4693;DHT22;11710;48.024;16.296;2022-11-15T15:57:44;9.60;99.90
4693;DHT22;11710;48.024;16.296;2022-11-15T16:00:12;9.60;99.90
4693;DHT22;11710;48.024;16.296;2022-11-15T16:02:40;9.60;99.90
4693;DHT22;11710;48.024;16.296;2022-11-15T16:05:09;9.60;99.90
4693;DHT22;11710;48.024;16.296;2022-11-15T16:07:37;9.60;99.90
4693;DHT22;11710;48.024;16.296;2022-11-15T16:10:25;9.60;99.90
4693;DHT22;11710;48.024;16.296;2022-11-15T16:12:55;9.50;99.90
4693;DHT22;11710;48.024;16.296;2022-11-15T16:15:24;9.50;99.90
4693;DHT22;11710;48.024;16.296;2022-11-15T16:17:53;9.50;99.90
4693;DHT22;11710;48.024;16.296;2022-11-15T16:20:34;9.50;99.90
4693;DHT22;11710;48.024;16.296;2022-11-15T16:23:03;9.40;99.90
4693;DHT22;11710;48.024;16.296;2022-11-15T16:25:32;9.40;99.90
4693;DHT22;11710;48.024;16.296;2022-11-15T16:28:02;9.50;99.90
4693;DHT22;11710;48.024;16.296;2022-11-15T16:30:30;9.50;99.90
4693;DHT22;11710;48.024;16.296;2022-11-15T16:32:57;9.40;99.90
4693;DHT22;11710;48.024;16.296;2022-11-15T16:35:26;9.40;99.90
4693;DHT22;11710;48.024;16.296;2022-11-15T16:37:53;9.40;99.90
4693;DHT22;11710;48.024;16.296;2022-11-15T16:40:26;9.50;99.90
4693;DHT22;11710;48.024;16.296;2022-11-15T16:42:55;9.50;99.90
4693;DHT22;11710;48.024;16.296;2022-11-15T16:45:25;9.50;99.90
4693;DHT22;11710;48.024;16.296;2022-11-15T16:47:54;9.50;99.90
4693;DHT22;11710;48.024;16.296;2022-11-15T16:50:24;9.50;99.90
4693;DHT22;11710;48.024;16.296;2022-11-15T16:52:54;9.60;99.90
4693;DHT22;11710;48.024;16.296;2022-11-15T16:55:25;9.60;99.90
4693;DHT22;11710;48.024;16.296;2022-11-15T16:57:52;9.60;99.90
4693;DHT22;11710;48.024;16.296;2022-11-15T17:00:20;9.60;99.90
4693;DHT22;11710;48.024;16.296;2022-11-15T17:02:50;9.60;99.90
4693;DHT22;11710;48.024;16.296;2022-11-15T17:05:21;9.60;99.90
4693;DHT22;11710;48.024;16.296;2022-11-15T17:07:50;9.60;99.90
4693;DHT22;11710;48.024;16.296;2022-11-15T17:10:19;9.60;99.90
4693;DHT22;11710;48.024;16.296;2022-11-15T17:12:47;9.60;99.90
4693;DHT22;11710;48.024;16.296;2022-11-15T17:15:15;9.60;99.90
4693;DHT22;11710;48.024;16.296;2022-11-15T17:17:43;9.70;99.90
4693;DHT22;11710;48.024;16.296;2022-11-15T17:20:16;9.70;99.90
4693;DHT22;11710;48.024;16.296;2022-11-15T17:22:44;9.70;99.90
4693;DHT22;11710;48.024;16.296;2022-11-15T17:25:12;9.70;99.90
4693;DHT22;11710;48.024;16.296;2022-11-15T17:27:39;9.70;99.90
4693;DHT22;11710;48.024;16.296;2022-11-15T17:30:08;9.70;99.90
4693;DHT22;11710;48.024;16.296;2022-11-15T17:32:37;9.70;99.90
4693;DHT22;11710;48.024;16.296;2022-11-15T17:35:05;9.70;99.90
4693;DHT22;11710;48.024;16.296;2022-11-15T17:37:35;9.70;99.90
4693;DHT22;11710;48.024;16.296;2022-11-15T17:40:03;9.70;99.90
4693;DHT22;11710;48.024;16.296;2022-11-15T17:42:31;9.60;99.90
4693;DHT22;11710;48.024;16.296;2022-11-15T17:44:59;9.60;99.90
4693;DHT22;11710;48.024;16.296;2022-11-15T17:47:26;9.60;99.90
4693;DHT22;11710;48.024;16.296;2022-11-15T17:49:54;9.60;99.90
4693;DHT22;11710;48.024;16.296;2022-11-15T17:52:22;9.60;99.90
4693;DHT22;11710;48.024;16.296;2022-11-15T17:54:51;9.50;99.90
4693;DHT22;11710;48.024;16.296;2022-11-15T17:57:18;9.50;99.90
4693;DHT22;11710;48.024;16.296;2022-11-15T17:59:47;9.40;99.90
4693;DHT22;11710;48.024;16.296;2022-11-15T18:02:15;9.40;99.90
4693;DHT22;11710;48.024;16.296;2022-11-15T18:04:43;9.40;99.90
4693;DHT22;11710;48.024;16.296;2022-11-15T18:07:11;9.40;99.90
4693;DHT22;11710;48.024;16.296;2022-11-15T18:09:40;9.30;99.90
4693;DHT22;11710;48.024;16.296;2022-11-15T18:12:11;9.30;99.90
4693;DHT22;11710;48.024;16.296;2022-11-15T18:14:41;9.30;99.90
4693;DHT22;11710;48.024;16.296;2022-11-15T18:17:10;9.30;99.90
4693;DHT22;11710;48.024;16.296;2022-11-15T18:19:37;9.30;99.90
4693;DHT22;11710;48.024;16.296;2022-11-15T18:22:05;9.30;99.90
4693;DHT22;11710;48.024;16.296;2022-11-15T18:24:35;9.20;99.90
4693;DHT22;11710;48.024;16.296;2022-11-15T18:29:37;9.30;99.90
4693;DHT22;11710;48.024;16.296;2022-11-15T18:32:05;9.30;99.90
4693;DHT22;11710;48.024;16.296;2022-11-15T18:34:42;9.30;99.90
4693;DHT22;11710;48.024;16.296;2022-11-15T18:37:10;9.30;99.90
4693;DHT22;11710;48.024;16.296;2022-11-15T18:39:37;9.20;99.90
4693;DHT22;11710;48.024;16.296;2022-11-15T18:42:05;9.20;99.90
4693;DHT22;11710;48.024;16.296;2022-11-15T18:44:34;9.30;99.90
4693;DHT22;11710;48.024;16.296;2022-11-15T18:47:03;9.30;99.90
4693;DHT22;11710;48.024;16.296;2022-11-15T18:49:30;9.30;99.90
4693;DHT22;11710;48.024;16.296;2022-11-15T18:51:57;9.20;99.90
4693;DHT22;11710;48.024;16.296;2022-11-15T18:54:25;9.30;99.90
4693;DHT22;11710;48.024;16.296;2022-11-15T18:56:52;9.30;99.90
4693;DHT22;11710;48.024;16.296;2022-11-15T18:59:19;9.30;99.90
4693;DHT22;11710;48.024;16.296;2022-11-15T19:01:46;9.30;99.90
4693;DHT22;11710;48.024;16.296;2022-11-15T19:04:17;9.30;99.90
4693;DHT22;11710;48.024;16.296;2022-11-15T19:06:46;9.30;99.90
4693;DHT22;11710;48.024;16.296;2022-11-15T19:09:17;9.30;99.90
4693;DHT22;11710;48.024;16.296;2022-11-15T19:11:45;9.40;99.90
4693;DHT22;11710;48.024;16.296;2022-11-15T19:14:14;9.40;99.90
4693;DHT22;11710;48.024;16.296;2022-11-15T19:16:44;9.30;99.90
4693;DHT22;11710;48.024;16.296;2022-11-15T19:19:18;9.30;99.90
4693;DHT22;11710;48.024;16.296;2022-11-15T19:21:46;9.30;99.90
4693;DHT22;11710;48.024;16.296;2022-11-15T19:24:13;9.40;99.90
4693;DHT22;11710;48.024;16.296;2022-11-15T19:26:41;9.40;99.90
4693;DHT22;11710;48.024;16.296;2022-11-15T19:29:09;9.40;99.90
